x

Port Stanley (45132) Wave Buoy

5:00am - Thu 23rd Oct 2014 All times are CDT. -5 hours from GMT.

  • Sig Wave height 1.0ft
  • Peak Period 3s
  • Wind
    11mph, 13mph gusts
  • Sea Temp 58°f
  • Air Temp 49°f
  • Sea Pressure 1022.8mb
  • Port Stanley
  • Port Stanley

More Historic Weather Station data

Upgrade to MSW Pro to gain access to the past 30 days of data for over 8000 Wavebouys and Weather Stations around the globe.

Join Pro

Comparision Forecast

View Surf forecast
   
Thu 10/23 5:00am 1ft 3s 11 13 mph 1022.8mb 58f 49f
4:00am 1.3ft 3s 11 13 mph 1022.8mb 58f 49f
3:00am 1.3ft 3s 13
mph
1022.5mb 58f 50f
2:00am 1.3ft 3s 13 18 mph 1023mb 58f 50f
1:00am 1.6ft 3s 16 18 mph 1022.8mb 58f 50f
12:00am 1.3ft 3s 16 18 mph 1023.1mb 58f 52f
Wed 10/22 11:00pm 1.6ft 3s 16 20 mph 1023.5mb 58f 50f
10:00pm 2ft 4s 18 22 mph 1023.7mb 58f 51f
9:00pm 2ft 4s 20 22 mph 1023.8mb 58f 51f
8:00pm 2.5ft 3s 20 25 mph 1023.7mb 58f 52f
7:00pm 1.6ft 3s 20
mph
1023.6mb 58f 52f
6:00pm 1ft 2s 20 22 mph 1023.5mb 59f 54f
5:00pm 1ft 4s 11 16 mph 1023.8mb 59f 56f
4:00pm 1ft 4s 7 9 mph 1023.9mb 59f 55f
3:00pm 1.3ft 5s 4 9 mph 1023.9mb 59f 54f
2:00pm 1.6ft 4s 9
mph
1024.2mb 59f 54f
1:00pm 2ft 4s 13 18 mph 1024.4mb 59f 53f
12:00pm 2ft 4s 16 18 mph 1024.8mb 59f 51f
11:00am 2.5ft 4s 18 22 mph 1025.2mb 58f 50f
10:00am 2.5ft 4s 16 20 mph 1025.2mb 58f 49f
9:00am 2ft 4s 11 16 mph 1025.2mb 58f 47f
8:00am 2.5ft 4s 13 18 mph 1025mb 58f 46f
7:00am 2.5ft 4s 16 20 mph 1024.3mb 58f 46f
6:00am 2.5ft 5s 18 22 mph 1023.8mb 58f 46f
5:00am 2.5ft 5s 18 20 mph 1022.9mb 58f 47f
4:00am 2.5ft 5s 18 25 mph 1022.3mb 58f 47f
3:00am 2.5ft 4s 20 25 mph 1021.7mb 58f 47f
2:00am 2.5ft 4s 20 27 mph 1021.4mb 58f 47f
1:00am 2.5ft 4s 20 22 mph 1021.1mb 58f 47f
12:00am 2.5ft 4s 20 25 mph 1020.9mb 58f 47f
Tue 10/21 11:00pm 2.5ft 4s 20 25 mph 1020.8mb 58f 48f
10:00pm 2.5ft 4s 20 25 mph 1020.6mb 58f 48f
9:00pm 2.5ft 4s 20 27 mph 1020.1mb 58f 48f
8:00pm 2.5ft 4s 22 27 mph 1019.2mb 58f 48f
7:00pm 2.5ft 4s 20 29 mph 1018.2mb 58f 49f
6:00pm 2.5ft 4s 22 29 mph 1017.2mb 58f 49f
5:00pm 2.5ft 4s 22 29 mph 1016.3mb 59f 49f
4:00pm 2.5ft 4s 22 27 mph 1015.6mb 59f 49f
3:00pm 2ft 4s 20 25 mph 1014.9mb 59f 49f
2:00pm 2.5ft 4s 22 27 mph 1014mb 59f 49f
1:00pm 2.5ft 4s 20 25 mph 1013.6mb 59f 50f
12:00pm 2.5ft 4s 20 25 mph 1013.4mb 59f 50f
11:00am 2ft 4s 20 25 mph 1013.3mb 59f 51f
10:00am 2.5ft 4s 18 22 mph 1012.9mb 59f 50f
9:00am 2.5ft 4s 25 29 mph 1012.5mb 59f 50f
8:00am 2ft 3s 22 27 mph 1011.9mb 59f 51f
7:00am 1.6ft 3s 20 27 mph 1011.3mb 59f 52f
6:00am 2ft 3s 18 20 mph 1010.6mb 59f 52f
5:00am 1.6ft 3s 18 22 mph 1010.3mb 59f 52f
4:00am 2ft 3s 18 20 mph 1010mb 59f 52f
3:00am  -   -  18
mph
1009.8mb 59f 53f
2:00am 2ft 3s 18 20 mph 1009.9mb 59f 53f
1:00am 2.5ft 5s 18 20 mph 1009.4mb 59f 54f
12:00am 2.5ft 5s 13 18 mph 1009.4mb 59f 54f
Mon 10/20 11:00pm 2.5ft 5s 16 18 mph 1009.6mb 59f 55f
10:00pm 2.5ft 5s 13 16 mph 1009.6mb 59f 56f
9:00pm 3ft 5s 11 13 mph 1009.5mb 59f 56f
7:00pm 3.5ft 5s 13 16 mph 1009.3mb 59f 55f
6:00pm 4ft 5s 18 20 mph 1008.9mb 59f 56f
5:00pm 4.5ft 6s 18 22 mph 1008.6mb 59f 57f
4:00pm 4.5ft 5s 20 25 mph 1008.4mb 59f 58f
3:00pm 4.5ft 6s 20 25 mph 1008.6mb 59f 57f
2:00pm 4.5ft 5s 22 25 mph 1008.5mb 59f 56f
1:00pm 4.5ft 6s 22 25 mph 1009mb 59f 56f
12:00pm 5ft 6s 22 27 mph 1009.6mb 59f 56f
11:00am 5ft 5s 22 27 mph 1010.2mb 59f 55f
10:00am 5ft 6s 25 29 mph 1010.8mb 59f 55f
9:00am 5ft 5s 22 27 mph 1011.4mb 59f 54f
8:00am 4.5ft 6s 25 31 mph 1011.6mb 59f 54f
7:00am 4.5ft 5s 22 25 mph 1011.6mb 59f 55f
6:00am 4ft 5s 20 25 mph 1011.8mb 59f 55f
5:00am 4ft 5s 22 25 mph 1012.4mb 59f 55f
4:00am 4ft 5s 20 22 mph 1012.7mb 59f 55f
3:00am 4ft 5s 20 25 mph 1013.3mb 59f 55f
2:00am 4ft 5s 20 25 mph 1014.2mb 59f 55f
1:00am 3.5ft 5s 20 22 mph 1014.9mb 59f 55f
12:00am 3ft 4s 20 25 mph 1015mb 59f 54f
Sun 10/19 10:00pm 2.5ft 4s 18 22 mph 1015.6mb 59f 53f
9:00pm 2.5ft 4s 13 20 mph 1016.1mb 59f 52f
8:00pm 2.5ft 4s 16 20 mph 1016.7mb 59f 51f
7:00pm 2.5ft 4s 18 22 mph 1017.4mb 59f 51f
6:00pm 2ft 4s 18 22 mph 1017.9mb 59f 49f
5:00pm 1.3ft 3s 13 18 mph 1018.2mb 59f 49f
4:00pm 1ft 3s 13 18 mph 1018.7mb 59f 49f
3:00pm 1ft 3s 13 18 mph 1019.4mb 60f 48f
2:00pm 0.7ft 2s 13 18 mph 1020mb 60f 48f
1:00pm 0.3ft 5s 7 11 mph 1020.7mb 60f 47f
12:00pm 0.7ft 5s 9 11 mph 1021.3mb 60f 46f